Aroya, Colorado
Current Conditions -  °F | °C
As of 9:55 AM on Saturday 20 Dec 2014 (Local Time) from KLIC Reporting Station
Clear Clear  
Wind Chill: 37°   Ceiling: Unl
Heat Index: 37°   Visibility: 10mi
Dew Point: 25°   Wind: 3mph
Humidity: 62%   Direction: 30°NNE
Pressure: 30.03"   Gusts: NA
Location:  38.8543°N, 103.125°W
Report Text: KLIC 201655Z AUTO 03003KT 10SM CLR 03/M04 A3003 RMK AO2 SLP186 T00281039
Loading
Personal Weather Stations






























Interactive Weather Map New forecast layout! Learn more

10-Day Weather Forecast

Advertisements
Track Severe Weather on mobile